createdAt,value
2023-04-01T00:00:13.582Z,977.19
2023-04-01T00:01:13.507Z,977.16
2023-04-01T00:02:13.657Z,977.16
2023-04-01T00:03:13.658Z,977.18
2023-04-01T00:04:13.811Z,977.19
2023-04-01T00:05:13.946Z,977.17
2023-04-01T00:06:13.043Z,977.19
2023-04-01T00:07:12.941Z,977.12
2023-04-01T00:08:13.058Z,977.19
2023-04-01T00:09:12.994Z,977.16
2023-04-01T00:10:12.968Z,977.17
2023-04-01T00:11:12.881Z,977.20
2023-04-01T00:12:14.016Z,977.15
2023-04-01T00:13:13.081Z,977.12
2023-04-01T00:14:12.976Z,977.18
2023-04-01T00:15:18.130Z,977.18
2023-04-01T00:16:21.672Z,977.12
2023-04-01T00:17:13.778Z,977.18
2023-04-01T00:18:13.696Z,977.15
2023-04-01T00:19:13.852Z,977.11
2023-04-01T00:20:13.993Z,977.17
2023-04-01T00:21:18.110Z,977.19
2023-04-01T00:22:13.089Z,977.13
2023-04-01T00:23:13.444Z,977.14
2023-04-01T00:24:13.409Z,977.20
2023-04-01T00:25:13.310Z,977.11
2023-04-01T00:26:13.696Z,977.20
2023-04-01T00:27:13.651Z,977.10
2023-04-01T00:28:13.984Z,977.12
2023-04-01T00:29:13.725Z,977.12
2023-04-01T00:30:13.950Z,977.15
2023-04-01T00:31:13.136Z,977.12
2023-04-01T00:32:13.308Z,977.16
2023-04-01T00:33:13.291Z,977.07
2023-04-01T00:34:13.478Z,977.08
2023-04-01T00:35:13.724Z,977.11
2023-04-01T00:36:13.796Z,977.09
2023-04-01T00:37:13.763Z,977.10
2023-04-01T00:38:14.230Z,977.14
2023-04-01T00:39:13.230Z,977.04
2023-04-01T00:40:13.226Z,977.08
2023-04-01T00:41:13.125Z,977.11
2023-04-01T00:42:13.541Z,977.05
2023-04-01T00:43:13.425Z,977.11
2023-04-01T00:44:13.504Z,977.15
2023-04-01T00:45:13.553Z,977.07
2023-04-01T00:46:13.503Z,977.05
2023-04-01T00:47:13.589Z,977.03
2023-04-01T00:48:13.797Z,977.12
2023-04-01T00:49:14.037Z,977.03
2023-04-01T00:50:12.840Z,977.04
2023-04-01T00:51:13.885Z,977.02
2023-04-01T00:52:13.062Z,977.08
2023-04-01T00:53:13.149Z,977.05
2023-04-01T00:54:13.217Z,977.08
2023-04-01T00:55:13.303Z,977.06
2023-04-01T00:56:13.320Z,977.03
2023-04-01T00:57:13.506Z,977.07
2023-04-01T00:58:13.512Z,977.09
2023-04-01T00:59:13.581Z,977.01
2023-04-01T01:00:13.473Z,977.05
2023-04-01T01:01:17.685Z,977.01
2023-04-01T01:02:13.717Z,977.01
2023-04-01T01:03:13.817Z,977.02
2023-04-01T01:04:12.819Z,976.99
2023-04-01T01:05:13.872Z,977.04
2023-04-01T01:06:13.771Z,977.00
2023-04-01T01:07:13.757Z,976.97
2023-04-01T01:08:13.660Z,977.01
2023-04-01T01:09:13.558Z,977.03
2023-04-01T01:10:13.437Z,976.97
2023-04-01T01:11:14.187Z,976.97
2023-04-01T01:12:13.283Z,977.00
2023-04-01T01:13:13.174Z,977.02
2023-04-01T01:14:13.170Z,976.97
2023-04-01T01:15:13.067Z,977.00
2023-04-01T01:16:13.176Z,977.00
2023-04-01T01:17:13.365Z,976.99
2023-04-01T01:18:13.322Z,977.04
2023-04-01T01:19:13.289Z,977.00
2023-04-01T01:20:22.979Z,976.98
2023-04-01T01:21:13.142Z,977.01
2023-04-01T01:22:13.180Z,976.99
2023-04-01T01:23:13.520Z,976.97
2023-04-01T01:24:13.875Z,976.94
2023-04-01T01:25:12.777Z,976.95
2023-04-01T01:26:13.731Z,976.94
2023-04-01T01:27:13.659Z,976.92
2023-04-01T01:28:13.630Z,976.88
2023-04-01T01:29:13.588Z,976.93
2023-04-01T01:30:13.497Z,976.83
2023-04-01T01:31:13.862Z,976.87
2023-04-01T01:32:14.017Z,976.88
2023-04-01T01:33:12.943Z,976.87
2023-04-01T01:34:13.110Z,976.87
2023-04-01T01:35:13.036Z,976.87
2023-04-01T01:36:13.194Z,976.86
2023-04-01T01:37:13.207Z,976.88
2023-04-01T01:38:13.062Z,976.88
2023-04-01T01:39:13.276Z,976.89
2023-04-01T01:40:13.149Z,976.90
2023-04-01T01:41:13.181Z,976.87
2023-04-01T01:42:13.226Z,976.86
2023-04-01T01:43:14.315Z,976.86
2023-04-01T01:44:13.227Z,976.84
2023-04-01T01:45:13.105Z,976.90
2023-04-01T01:46:13.337Z,976.86
2023-04-01T01:47:13.424Z,976.87
2023-04-01T01:48:13.560Z,976.88
2023-04-01T01:49:13.608Z,976.83
2023-04-01T01:50:13.525Z,976.80
2023-04-01T01:51:13.628Z,976.85
2023-04-01T01:52:13.888Z,976.81
2023-04-01T01:53:12.875Z,976.74
2023-04-01T01:54:14.109Z,976.81
2023-04-01T01:55:13.017Z,976.79
2023-04-01T01:56:12.897Z,976.70
2023-04-01T01:57:13.290Z,976.83
2023-04-01T01:58:13.282Z,976.84
2023-04-01T01:59:13.700Z,976.83
2023-04-01T02:00:13.839Z,976.80
2023-04-01T02:01:13.796Z,976.81
2023-04-01T02:02:14.026Z,976.74
2023-04-01T02:03:13.025Z,976.86
2023-04-01T02:04:13.354Z,976.89
2023-04-01T02:05:13.509Z,976.88
2023-04-01T02:06:13.712Z,976.85
2023-04-01T02:07:13.542Z,976.82
2023-04-01T02:08:13.337Z,976.86
2023-04-01T02:09:13.399Z,976.79
2023-04-01T02:10:13.560Z,976.91
2023-04-01T02:11:13.491Z,976.87
2023-04-01T02:12:13.865Z,976.87
2023-04-01T02:13:12.821Z,976.92
2023-04-01T02:14:13.968Z,976.90
2023-04-01T02:15:12.962Z,976.89
2023-04-01T02:16:12.915Z,976.89
2023-04-01T02:17:13.224Z,976.87
2023-04-01T02:18:13.377Z,976.86
2023-04-01T02:19:13.497Z,976.87
2023-04-01T02:20:13.558Z,976.84
2023-04-01T02:21:13.490Z,976.82
2023-04-01T02:22:13.413Z,976.83
2023-04-01T02:23:13.784Z,976.84
2023-04-01T02:24:13.872Z,976.85
2023-04-01T02:25:13.619Z,976.84
2023-04-01T02:26:13.442Z,976.82
2023-04-01T02:27:13.702Z,976.76
2023-04-01T02:28:13.588Z,976.82
2023-04-01T02:29:13.418Z,976.76
2023-04-01T02:30:13.361Z,976.86
2023-04-01T02:31:13.302Z,976.87
2023-04-01T02:32:13.285Z,976.82
2023-04-01T02:33:13.227Z,976.81
2023-04-01T02:34:13.196Z,976.80
2023-04-01T02:35:13.157Z,976.74
2023-04-01T02:36:13.319Z,976.77
2023-04-01T02:37:13.587Z,976.79
2023-04-01T02:38:13.635Z,976.77
2023-04-01T02:39:13.693Z,976.73
2023-04-01T02:40:13.849Z,976.74
2023-04-01T02:41:14.208Z,976.72
2023-04-01T02:42:13.182Z,976.71
2023-04-01T02:43:13.386Z,976.75
2023-04-01T02:44:13.298Z,976.74
2023-04-01T02:45:13.422Z,976.74
2023-04-01T02:46:13.280Z,976.69
2023-04-01T02:47:13.550Z,976.77
2023-04-01T02:48:13.640Z,976.70
2023-04-01T02:49:13.832Z,976.68
2023-04-01T02:50:13.971Z,976.73
2023-04-01T02:51:13.390Z,976.74
2023-04-01T02:52:13.600Z,976.69
2023-04-01T02:53:13.617Z,976.71
2023-04-01T02:54:13.541Z,976.69
2023-04-01T02:55:13.850Z,976.75
2023-04-01T02:56:14.145Z,976.74
2023-04-01T02:57:13.053Z,976.72
2023-04-01T02:58:12.935Z,976.71
2023-04-01T02:59:13.094Z,976.71
2023-04-01T03:00:13.002Z,976.74
2023-04-01T03:01:13.086Z,976.73
2023-04-01T03:02:12.981Z,976.70
2023-04-01T03:03:13.170Z,976.73
2023-04-01T03:04:13.346Z,976.72
2023-04-01T03:05:13.459Z,976.80
2023-04-01T03:06:13.413Z,976.79
2023-04-01T03:07:13.523Z,976.82
2023-04-01T03:08:13.466Z,976.77
2023-04-01T03:09:13.403Z,976.86
2023-04-01T03:10:13.391Z,976.80
2023-04-01T03:11:13.466Z,976.86
2023-04-01T03:12:13.722Z,976.80
2023-04-01T03:13:13.653Z,976.85
2023-04-01T03:14:13.952Z,976.83
2023-04-01T03:15:13.094Z,976.90
2023-04-01T03:16:14.632Z,976.89
2023-04-01T03:17:13.636Z,976.83
2023-04-01T03:18:13.825Z,976.85
2023-04-01T03:19:13.672Z,976.89
2023-04-01T03:20:13.706Z,976.89
2023-04-01T03:21:13.684Z,976.90
2023-04-01T03:22:14.016Z,976.87
2023-04-01T03:23:12.951Z,976.90
2023-04-01T03:24:12.838Z,976.82
2023-04-01T03:25:13.855Z,976.85
2023-04-01T03:26:13.996Z,976.82
2023-04-01T03:27:13.133Z,976.83
2023-04-01T03:28:13.163Z,976.82
2023-04-01T03:29:13.256Z,976.87
2023-04-01T03:30:13.315Z,976.83
2023-04-01T03:31:13.316Z,976.91
2023-04-01T03:32:13.323Z,976.82
2023-04-01T03:33:13.290Z,976.85
2023-04-01T03:34:13.663Z,976.93
2023-04-01T03:35:13.691Z,976.88
2023-04-01T03:36:13.676Z,976.92
2023-04-01T03:37:13.546Z,976.92
2023-04-01T03:38:13.556Z,976.91
2023-04-01T03:39:13.469Z,976.95
2023-04-01T03:40:13.308Z,976.98
2023-04-01T03:41:13.653Z,977.03
2023-04-01T03:42:13.663Z,976.96
2023-04-01T03:43:13.850Z,976.97
2023-04-01T03:44:13.126Z,976.94
2023-04-01T03:45:13.038Z,976.96
2023-04-01T03:46:13.007Z,976.95
2023-04-01T03:47:12.986Z,977.01
2023-04-01T03:48:13.059Z,976.98
2023-04-01T03:49:13.350Z,977.00
2023-04-01T03:50:13.266Z,977.05
2023-04-01T03:51:13.335Z,977.00
2023-04-01T03:52:13.253Z,977.03
2023-04-01T03:53:13.080Z,977.03
2023-04-01T03:54:13.173Z,977.01
2023-04-01T03:55:13.401Z,976.99
2023-04-01T03:56:13.352Z,977.00
2023-04-01T03:57:13.535Z,977.08
2023-04-01T03:58:13.709Z,977.07
2023-04-01T03:59:13.951Z,977.05
2023-04-01T04:00:12.927Z,977.06
2023-04-01T04:01:13.062Z,977.10
2023-04-01T04:02:13.006Z,977.08
2023-04-01T04:03:13.087Z,977.09
2023-04-01T04:04:13.174Z,977.16
2023-04-01T04:05:13.401Z,977.12
2023-04-01T04:06:13.656Z,977.10
2023-04-01T04:07:13.703Z,977.16
2023-04-01T04:08:13.859Z,977.10
2023-04-01T04:09:13.847Z,977.19
2023-04-01T04:10:14.103Z,977.16
2023-04-01T04:11:13.254Z,977.21
2023-04-01T04:12:13.264Z,977.14
2023-04-01T04:13:13.354Z,977.16
2023-04-01T04:14:13.476Z,977.22
2023-04-01T04:15:13.816Z,977.23
2023-04-01T04:16:13.972Z,977.27
2023-04-01T04:17:13.894Z,977.18
2023-04-01T04:18:13.041Z,977.24
2023-04-01T04:19:12.955Z,977.21
2023-04-01T04:20:12.856Z,977.18
2023-04-01T04:21:14.043Z,977.18
2023-04-01T04:22:13.386Z,977.22
2023-04-01T04:23:13.437Z,977.22
2023-04-01T04:24:13.630Z,977.20
2023-04-01T04:25:13.996Z,977.24
2023-04-01T04:26:13.204Z,977.23
2023-04-01T04:27:13.124Z,977.24
2023-04-01T04:28:13.095Z,977.25
2023-04-01T04:29:12.987Z,977.31
2023-04-01T04:30:13.244Z,977.27
2023-04-01T04:31:13.271Z,977.29
2023-04-01T04:32:13.284Z,977.24
2023-04-01T04:33:13.218Z,977.28
2023-04-01T04:34:13.139Z,977.29
2023-04-01T04:35:13.053Z,977.32
2023-04-01T04:36:13.240Z,977.34
2023-04-01T04:37:13.213Z,977.31
2023-04-01T04:38:13.093Z,977.30
2023-04-01T04:39:13.180Z,977.30
2023-04-01T04:40:13.109Z,977.29
2023-04-01T04:41:12.938Z,977.30
2023-04-01T04:42:12.898Z,977.33
2023-04-01T04:43:13.486Z,977.32
2023-04-01T04:44:13.343Z,977.28
2023-04-01T04:45:13.469Z,977.33
2023-04-01T04:46:13.390Z,977.31
2023-04-01T04:47:13.791Z,977.31
2023-04-01T04:48:13.923Z,977.27
2023-04-01T04:49:12.742Z,977.34
2023-04-01T04:50:14.052Z,977.31
2023-04-01T04:51:13.099Z,977.32
2023-04-01T04:52:13.087Z,977.36
2023-04-01T04:53:13.210Z,977.38
2023-04-01T04:54:13.319Z,977.35
2023-04-01T04:55:13.330Z,977.33
2023-04-01T04:56:13.563Z,977.36
2023-04-01T04:57:13.479Z,977.35
2023-04-01T04:58:13.364Z,977.36
2023-04-01T04:59:13.331Z,977.29
2023-04-01T05:00:15.107Z,977.38
2023-04-01T05:01:13.526Z,977.47
2023-04-01T05:02:13.608Z,977.36
2023-04-01T05:03:13.740Z,977.43
2023-04-01T05:04:13.930Z,977.41
2023-04-01T05:05:12.854Z,977.43
2023-04-01T05:06:14.042Z,977.37
2023-04-01T05:07:12.992Z,977.42
2023-04-01T05:08:12.903Z,977.39
2023-04-01T05:09:12.791Z,977.43
2023-04-01T05:10:13.604Z,977.45
2023-04-01T05:11:13.852Z,977.41
2023-04-01T05:12:13.157Z,977.42
2023-04-01T05:13:13.192Z,977.47
2023-04-01T05:14:13.303Z,977.45
2023-04-01T05:15:13.458Z,977.48
2023-04-01T05:16:13.460Z,977.47
2023-04-01T05:17:13.755Z,977.44
2023-04-01T05:18:13.705Z,977.48
2023-04-01T05:19:13.649Z,977.45
2023-04-01T05:20:13.675Z,977.50
2023-04-01T05:21:13.670Z,977.52
2023-04-01T05:22:13.663Z,977.53
2023-04-01T05:23:13.949Z,977.46
2023-04-01T05:24:12.829Z,977.51
2023-04-01T05:25:13.668Z,977.50
2023-04-01T05:26:13.764Z,977.56
2023-04-01T05:27:13.708Z,977.65
2023-04-01T05:28:13.845Z,977.66
2023-04-01T05:29:13.936Z,977.67
2023-04-01T05:30:13.035Z,977.66
2023-04-01T05:31:12.950Z,977.66
2023-04-01T05:32:12.884Z,977.68
2023-04-01T05:33:12.977Z,977.65
2023-04-01T05:34:13.044Z,977.64
2023-04-01T05:35:12.908Z,977.66
2023-04-01T05:36:12.814Z,977.57
2023-04-01T05:37:12.903Z,977.59
2023-04-01T05:38:12.917Z,977.57
2023-04-01T05:39:12.888Z,977.55
2023-04-01T05:40:12.944Z,977.58
2023-04-01T05:41:12.824Z,977.57
2023-04-01T05:42:13.997Z,977.62
2023-04-01T05:43:13.205Z,977.58
2023-04-01T05:44:13.164Z,977.59
2023-04-01T05:45:13.100Z,977.64
2023-04-01T05:46:13.016Z,977.67
2023-04-01T05:47:13.655Z,977.60
2023-04-01T05:48:13.845Z,977.64
2023-04-01T05:49:13.784Z,977.64
2023-04-01T05:50:13.673Z,977.64
2023-04-01T05:51:14.374Z,977.59
2023-04-01T05:52:13.380Z,977.68
2023-04-01T05:53:13.544Z,977.66
2023-04-01T05:54:13.810Z,977.66
2023-04-01T05:55:13.805Z,977.66
2023-04-01T05:56:13.987Z,977.68
2023-04-01T05:57:12.996Z,977.67
2023-04-01T05:58:13.051Z,977.68
2023-04-01T05:59:12.947Z,977.71
2023-04-01T06:00:12.880Z,977.70
2023-04-01T06:01:16.183Z,977.67
2023-04-01T06:02:13.849Z,977.71
2023-04-01T06:03:13.020Z,977.70
2023-04-01T06:04:13.309Z,977.69
2023-04-01T06:05:13.480Z,977.73
2023-04-01T06:06:13.402Z,977.69
2023-04-01T06:07:13.343Z,977.72
2023-04-01T06:08:13.504Z,977.70
2023-04-01T06:09:13.699Z,977.71
2023-04-01T06:10:13.599Z,977.73
2023-04-01T06:11:13.459Z,977.74
2023-04-01T06:12:13.690Z,977.76
2023-04-01T06:13:13.583Z,977.74
2023-04-01T06:14:13.521Z,977.77
2023-04-01T06:15:13.527Z,977.76
2023-04-01T06:16:13.869Z,977.75
2023-04-01T06:17:12.836Z,977.79
2023-04-01T06:18:13.818Z,977.79
2023-04-01T06:19:14.042Z,977.82
2023-04-01T06:20:13.043Z,977.85
2023-04-01T06:21:13.161Z,977.86
2023-04-01T06:22:13.063Z,977.84
2023-04-01T06:23:13.497Z,977.87
2023-04-01T06:24:13.683Z,977.85
2023-04-01T06:25:13.602Z,977.84
2023-04-01T06:26:13.630Z,977.87
2023-04-01T06:27:13.633Z,977.89
2023-04-01T06:28:13.603Z,977.88
2023-04-01T06:29:13.946Z,977.93
2023-04-01T06:30:13.161Z,977.88
2023-04-01T06:31:13.168Z,977.92
2023-04-01T06:32:13.280Z,977.92
2023-04-01T06:33:13.260Z,977.92
2023-04-01T06:34:47.010Z,977.96
2023-04-01T06:35:13.423Z,977.98
2023-04-01T06:36:13.411Z,977.98
2023-04-01T06:37:13.491Z,977.94
2023-04-01T06:38:13.680Z,977.98
2023-04-01T06:40:13.423Z,977.99
2023-04-01T06:41:13.337Z,978.01
2023-04-01T06:42:44.269Z,977.98
2023-04-01T06:43:13.432Z,978.02
2023-04-01T06:44:13.349Z,977.97
2023-04-01T06:45:13.604Z,978.00
2023-04-01T06:46:13.528Z,978.01
2023-04-01T06:47:13.680Z,978.01
2023-04-01T06:48:13.635Z,978.05
2023-04-01T06:49:13.596Z,978.07
2023-04-01T06:50:13.684Z,978.03
2023-04-01T06:51:13.897Z,978.03
2023-04-01T06:52:12.841Z,978.04
2023-04-01T06:53:14.474Z,978.06
2023-04-01T06:54:13.372Z,978.04
2023-04-01T06:55:13.749Z,978.07
2023-04-01T06:56:13.557Z,978.07
2023-04-01T06:57:13.654Z,978.02
2023-04-01T06:58:14.050Z,978.09
2023-04-01T06:59:13.533Z,978.06
2023-04-01T07:00:13.466Z,978.03
2023-04-01T07:01:13.818Z,978.05
2023-04-01T07:02:14.054Z,978.09
2023-04-01T07:03:13.070Z,978.14
2023-04-01T07:04:13.050Z,978.10
2023-04-01T07:05:13.375Z,978.13
2023-04-01T07:06:13.427Z,978.18
2023-04-01T07:07:13.541Z,978.15
2023-04-01T07:08:13.933Z,978.17
2023-04-01T07:09:13.283Z,978.15
2023-04-01T07:10:13.396Z,978.15
2023-04-01T07:11:13.319Z,978.14
2023-04-01T07:12:13.372Z,978.22
2023-04-01T07:13:13.418Z,978.20
2023-04-01T07:14:13.310Z,978.19
2023-04-01T07:15:13.375Z,978.21
2023-04-01T07:16:13.389Z,978.21
2023-04-01T07:17:13.540Z,978.22
2023-04-01T07:18:13.553Z,978.19
2023-04-01T07:19:13.880Z,978.23
2023-04-01T07:20:12.800Z,978.26
2023-04-01T07:21:13.776Z,978.21
2023-04-01T07:22:13.974Z,978.29
2023-04-01T07:23:13.218Z,978.23
2023-04-01T07:24:13.128Z,978.24
2023-04-01T07:25:13.089Z,978.27
2023-04-01T07:26:13.055Z,978.24
2023-04-01T07:27:13.002Z,978.26
2023-04-01T07:28:13.224Z,978.31
2023-04-01T07:29:13.248Z,978.32
2023-04-01T07:30:14.204Z,978.32
2023-04-01T07:31:13.407Z,978.30
2023-04-01T07:32:13.366Z,978.28
2023-04-01T07:33:13.473Z,978.32
2023-04-01T07:34:13.553Z,978.33
2023-04-01T07:35:13.854Z,978.35
2023-04-01T07:36:13.740Z,978.35
2023-04-01T07:37:14.138Z,978.33
2023-04-01T07:38:13.448Z,978.35
2023-04-01T07:39:13.435Z,978.29
2023-04-01T07:40:13.427Z,978.37
2023-04-01T07:41:13.287Z,978.38
2023-04-01T07:42:13.198Z,978.38
2023-04-01T07:43:13.085Z,978.36
2023-04-01T07:44:13.296Z,978.40
2023-04-01T07:45:13.329Z,978.39
2023-04-01T07:46:13.475Z,978.45
2023-04-01T07:47:13.798Z,978.43
2023-04-01T07:48:13.605Z,978.39
2023-04-01T07:49:13.584Z,978.45
2023-04-01T07:50:13.399Z,978.43
2023-04-01T07:51:13.362Z,978.44
2023-04-01T07:52:13.369Z,978.47
2023-04-01T07:53:20.946Z,978.49
2023-04-01T07:54:13.512Z,978.45
2023-04-01T07:55:13.782Z,978.49
2023-04-01T07:56:15.182Z,978.50
2023-04-01T07:57:13.222Z,978.54
2023-04-01T07:58:13.307Z,978.49
2023-04-01T07:59:13.181Z,978.53
2023-04-01T08:00:13.096Z,978.49
2023-04-01T08:01:13.541Z,978.57
2023-04-01T08:02:13.482Z,978.54
2023-04-01T08:03:13.542Z,978.55
2023-04-01T08:04:13.996Z,978.59
2023-04-01T08:05:14.386Z,978.54
2023-04-01T08:06:13.670Z,978.57
2023-04-01T08:07:14.230Z,978.57
2023-04-01T08:08:13.382Z,978.54
2023-04-01T08:09:13.379Z,978.62
2023-04-01T08:10:13.474Z,978.61
2023-04-01T08:11:13.647Z,978.60
2023-04-01T08:12:13.676Z,978.63
2023-04-01T08:13:13.778Z,978.63
2023-04-01T08:14:13.880Z,978.62
2023-04-01T08:15:13.077Z,978.63
2023-04-01T08:16:13.193Z,978.67
2023-04-01T08:17:13.238Z,978.62
2023-04-01T08:18:13.134Z,978.67
2023-04-01T08:19:13.357Z,978.69
2023-04-01T08:20:13.274Z,978.63
2023-04-01T08:21:13.224Z,978.67
2023-04-01T08:22:13.448Z,978.75
2023-04-01T08:23:13.424Z,978.66
2023-04-01T08:24:13.537Z,978.68
2023-04-01T08:25:13.543Z,978.70
2023-04-01T08:26:13.426Z,978.77
2023-04-01T08:27:13.692Z,978.75
2023-04-01T08:28:13.488Z,978.74
2023-04-01T08:29:13.520Z,978.74
2023-04-01T08:30:13.573Z,978.73
2023-04-01T08:31:14.006Z,978.77
2023-04-01T08:32:13.075Z,978.76
2023-04-01T08:33:13.437Z,978.78
2023-04-01T08:34:13.452Z,978.81
2023-04-01T08:35:13.604Z,978.82
2023-04-01T08:36:13.956Z,978.80
2023-04-01T08:37:13.302Z,978.87
2023-04-01T08:38:13.596Z,978.85
2023-04-01T08:39:13.648Z,978.89
2023-04-01T08:40:14.014Z,978.88
2023-04-01T08:41:13.185Z,978.87
2023-04-01T08:42:13.024Z,978.89
2023-04-01T08:43:12.937Z,978.97
2023-04-01T08:44:13.268Z,978.93
2023-04-01T08:45:14.650Z,978.93
2023-04-01T08:46:14.048Z,978.95
2023-04-01T08:47:13.221Z,978.93
2023-04-01T08:48:13.161Z,978.93
2023-04-01T08:49:13.216Z,979.02
2023-04-01T08:50:13.222Z,978.99
2023-04-01T08:51:13.678Z,979.02
2023-04-01T08:52:13.502Z,978.98
2023-04-01T08:53:13.374Z,978.92
2023-04-01T08:54:13.218Z,978.99
2023-04-01T08:55:13.318Z,979.01
2023-04-01T08:56:13.800Z,979.05
2023-04-01T08:57:13.924Z,979.08
2023-04-01T08:58:12.983Z,979.08
2023-04-01T08:59:12.950Z,979.06
2023-04-01T09:00:12.959Z,979.05
2023-04-01T09:01:12.847Z,979.09
2023-04-01T09:02:14.030Z,979.08
2023-04-01T09:03:13.453Z,979.15
2023-04-01T09:04:13.424Z,979.11
2023-04-01T09:05:13.423Z,979.16
2023-04-01T09:06:13.354Z,979.13
2023-04-01T09:07:13.402Z,979.19
2023-04-01T09:08:13.330Z,979.15
2023-04-01T09:09:13.418Z,979.18
2023-04-01T09:10:13.336Z,979.18
2023-04-01T09:11:13.438Z,979.15
2023-04-01T09:12:13.474Z,979.18
2023-04-01T09:13:13.446Z,979.17
2023-04-01T09:14:13.676Z,979.17
2023-04-01T09:15:13.677Z,979.22
2023-04-01T09:16:13.794Z,979.23
2023-04-01T09:17:14.124Z,979.20
2023-04-01T09:18:13.026Z,979.26
2023-04-01T09:19:13.089Z,979.25
2023-04-01T09:20:13.064Z,979.24
2023-04-01T09:21:13.296Z,979.24
2023-04-01T09:22:13.393Z,979.23
2023-04-01T09:23:13.401Z,979.27
2023-04-01T09:24:13.416Z,979.26
2023-04-01T09:25:13.532Z,979.28
2023-04-01T09:26:13.700Z,979.31
2023-04-01T09:27:14.056Z,979.33
2023-04-01T09:28:13.015Z,979.31
2023-04-01T09:30:13.922Z,979.34
2023-04-01T09:31:13.221Z,979.31
2023-04-01T09:32:13.471Z,979.34
2023-04-01T09:33:13.686Z,979.38
2023-04-01T09:34:13.956Z,979.40
2023-04-01T09:35:13.021Z,979.41
2023-04-01T09:36:13.186Z,979.42
2023-04-01T09:37:13.232Z,979.47
2023-04-01T09:38:13.202Z,979.46
2023-04-01T09:39:13.143Z,979.47
2023-04-01T09:40:19.010Z,979.51
2023-04-01T09:41:13.259Z,979.50
2023-04-01T09:42:13.701Z,979.53
2023-04-01T09:43:13.741Z,979.53
2023-04-01T09:44:14.047Z,979.52
2023-04-01T09:45:13.018Z,979.48
2023-04-01T09:46:13.495Z,979.54
2023-04-01T09:47:28.667Z,979.58
2023-04-01T09:48:13.668Z,979.56
2023-04-01T09:49:13.728Z,979.59
2023-04-01T09:50:14.211Z,979.55
2023-04-01T09:52:26.088Z,979.64
2023-04-01T09:53:13.111Z,979.68
2023-04-01T09:54:13.132Z,979.60
2023-04-01T09:55:13.162Z,979.62
2023-04-01T09:56:13.116Z,979.60
2023-04-01T09:57:14.490Z,979.64
2023-04-01T09:58:13.883Z,979.66
2023-04-01T09:59:12.913Z,979.67
2023-04-01T10:00:12.895Z,979.69
2023-04-01T10:01:12.893Z,979.69
2023-04-01T10:02:12.750Z,979.71
2023-04-01T10:03:13.930Z,979.71
2023-04-01T10:04:12.970Z,979.71
2023-04-01T10:05:13.201Z,979.70
2023-04-01T10:06:13.135Z,979.73
2023-04-01T10:07:13.324Z,979.72
2023-04-01T10:08:13.400Z,979.74
2023-04-01T10:09:13.512Z,979.79
2023-04-01T10:10:13.381Z,979.77
2023-04-01T10:11:13.392Z,979.71
2023-04-01T10:12:13.423Z,979.81
2023-04-01T10:13:13.435Z,979.80
2023-04-01T10:14:13.343Z,979.83
2023-04-01T10:15:13.683Z,979.85
2023-04-01T10:16:13.722Z,979.82
2023-04-01T10:17:13.880Z,979.81
2023-04-01T10:18:14.264Z,979.82
2023-04-01T10:19:13.284Z,979.90
2023-04-01T10:20:13.450Z,979.85
2023-04-01T10:21:13.515Z,979.91
2023-04-01T10:22:13.715Z,979.89
2023-04-01T10:23:13.617Z,979.91
2023-04-01T10:24:13.794Z,979.92
2023-04-01T10:25:13.637Z,979.96
2023-04-01T10:26:13.534Z,979.90
2023-04-01T10:27:13.928Z,979.92
2023-04-01T10:28:12.847Z,979.91
2023-04-01T10:29:13.813Z,979.86
2023-04-01T10:30:13.665Z,979.94
2023-04-01T10:31:14.602Z,979.95
2023-04-01T10:32:13.872Z,979.91
2023-04-01T10:34:13.404Z,979.94
2023-04-01T10:35:13.409Z,979.95
2023-04-01T10:36:14.392Z,979.96
2023-04-01T10:37:13.510Z,979.97
2023-04-01T10:38:18.718Z,979.99
2023-04-01T10:39:13.673Z,979.95
2023-04-01T10:40:13.542Z,980.00
2023-04-01T10:41:13.491Z,980.01
2023-04-01T10:42:13.636Z,979.97
2023-04-01T10:43:13.883Z,979.99
2023-04-01T10:44:14.491Z,980.01
2023-04-01T10:45:13.439Z,979.97
2023-04-01T10:46:15.624Z,980.03
2023-04-01T10:47:12.850Z,979.98
2023-04-01T10:48:13.805Z,980.03
2023-04-01T10:49:13.978Z,980.03
2023-04-01T10:50:12.845Z,980.03
2023-04-01T10:51:13.942Z,980.02
2023-04-01T10:52:12.996Z,980.03
2023-04-01T10:53:13.002Z,980.02
2023-04-01T10:54:12.836Z,980.07
2023-04-01T10:55:14.163Z,980.06
2023-04-01T10:56:13.480Z,980.02
2023-04-01T10:57:13.758Z,980.08
2023-04-01T10:58:13.824Z,980.08
2023-04-01T10:59:13.810Z,980.06
2023-04-01T11:00:14.002Z,980.11
2023-04-01T11:01:13.222Z,980.10
2023-04-01T11:02:13.800Z,980.04
2023-04-01T11:03:13.344Z,980.10
2023-04-01T11:04:13.671Z,980.12
2023-04-01T11:05:13.800Z,980.06
2023-04-01T11:06:14.051Z,980.08
2023-04-01T11:07:13.031Z,980.12
2023-04-01T11:08:13.052Z,980.12
2023-04-01T11:09:12.925Z,980.13
2023-04-01T11:10:12.935Z,980.11
2023-04-01T11:11:13.404Z,980.15
2023-04-01T11:12:13.285Z,980.15
2023-04-01T11:13:13.192Z,980.15
2023-04-01T11:14:13.132Z,980.18
2023-04-01T11:15:13.071Z,980.15
2023-04-01T11:16:13.293Z,980.18
2023-04-01T11:17:13.257Z,980.16
2023-04-01T11:18:13.525Z,980.23
2023-04-01T11:19:13.590Z,980.20
2023-04-01T11:20:13.862Z,980.28
2023-04-01T11:21:13.890Z,980.22
2023-04-01T11:22:13.761Z,980.18
2023-04-01T11:23:13.767Z,980.26
2023-04-01T11:24:13.659Z,980.23
2023-04-01T11:25:13.801Z,980.22
2023-04-01T11:26:13.879Z,980.25
2023-04-01T11:27:13.942Z,980.27
2023-04-01T11:28:13.255Z,980.29
2023-04-01T11:29:13.422Z,980.30
2023-04-01T11:30:13.313Z,980.28
2023-04-01T11:31:13.280Z,980.29
2023-04-01T11:32:13.366Z,980.29
2023-04-01T11:33:13.310Z,980.34
2023-04-01T11:34:13.476Z,980.23
2023-04-01T11:35:13.460Z,980.34
2023-04-01T11:36:33.806Z,980.32
2023-04-01T11:37:18.873Z,980.40
2023-04-01T11:38:13.147Z,980.40
2023-04-01T11:39:13.044Z,980.42
2023-04-01T11:40:13.128Z,980.42
2023-04-01T11:41:18.279Z,980.45
2023-04-01T11:42:13.333Z,980.45
2023-04-01T11:43:26.314Z,980.41
2023-04-01T11:44:13.850Z,980.46
2023-04-01T11:45:14.126Z,980.52
2023-04-01T11:46:13.149Z,980.42
2023-04-01T11:47:13.098Z,980.51
2023-04-01T11:48:13.178Z,980.54
2023-04-01T11:49:12.985Z,980.55
2023-04-01T11:50:13.188Z,980.52
2023-04-01T11:51:13.448Z,980.57
2023-04-01T11:52:13.306Z,980.58
2023-04-01T11:53:13.589Z,980.51
2023-04-01T11:54:13.703Z,980.62
2023-04-01T11:55:13.607Z,980.62
2023-04-01T11:56:14.368Z,980.65
2023-04-01T11:57:13.266Z,980.67
2023-04-01T11:58:13.340Z,980.68
2023-04-01T11:59:13.296Z,980.72
2023-04-01T12:00:13.491Z,980.64
2023-04-01T12:01:13.456Z,980.75
2023-04-01T12:02:13.818Z,980.74
2023-04-01T12:03:14.014Z,980.74
2023-04-01T12:04:13.529Z,980.78
2023-04-01T12:05:13.634Z,980.73
2023-04-01T12:06:13.684Z,980.76
2023-04-01T12:07:13.610Z,980.77
2023-04-01T12:08:13.426Z,980.76
2023-04-01T12:09:13.336Z,980.83
2023-04-01T12:10:13.150Z,980.82
2023-04-01T12:11:13.291Z,980.86
2023-04-01T12:12:13.321Z,980.84
2023-04-01T12:13:13.193Z,980.85
2023-04-01T12:14:13.189Z,980.84
2023-04-01T12:15:13.102Z,980.87
2023-04-01T12:16:13.405Z,980.88
2023-04-01T12:17:13.334Z,980.87
2023-04-01T12:18:13.302Z,980.84
2023-04-01T12:19:13.828Z,980.88
2023-04-01T12:20:13.872Z,980.94
2023-04-01T12:21:12.905Z,980.91
2023-04-01T12:22:12.758Z,980.94
2023-04-01T12:23:13.690Z,980.97
2023-04-01T12:24:13.602Z,980.95
2023-04-01T12:25:13.429Z,980.96
2023-04-01T12:27:13.576Z,980.97
2023-04-01T12:28:13.583Z,980.97
2023-04-01T12:29:15.611Z,980.99
2023-04-01T12:30:13.522Z,980.95
2023-04-01T12:31:13.419Z,981.01
2023-04-01T12:32:13.356Z,980.96
2023-04-01T12:33:13.480Z,981.01